sensor_id;sensor_type;location;lat;lon;timestamp;temperature;humidity
32612;DHT22;19030;49.478;8.986;2022-08-21T00:00:51;14.00;99.90
32612;DHT22;19030;49.478;8.986;2022-08-21T00:03:00;14.10;99.90
32612;DHT22;19030;49.478;8.986;2022-08-21T00:05:02;14.10;99.90
32612;DHT22;19030;49.478;8.986;2022-08-21T00:07:02;14.10;99.90
32612;DHT22;19030;49.478;8.986;2022-08-21T00:09:06;14.00;99.90
32612;DHT22;19030;49.478;8.986;2022-08-21T00:11:07;14.00;99.90
32612;DHT22;19030;49.478;8.986;2022-08-21T00:13:08;14.00;99.90
32612;DHT22;19030;49.478;8.986;2022-08-21T00:15:10;14.00;99.90
32612;DHT22;19030;49.478;8.986;2022-08-21T00:17:11;14.00;99.90
32612;DHT22;19030;49.478;8.986;2022-08-21T00:19:11;13.90;99.90
32612;DHT22;19030;49.478;8.986;2022-08-21T00:21:13;13.90;99.90
32612;DHT22;19030;49.478;8.986;2022-08-21T00:23:14;13.90;99.90
32612;DHT22;19030;49.478;8.986;2022-08-21T00:25:17;13.90;99.90
32612;DHT22;19030;49.478;8.986;2022-08-21T00:27:18;13.80;99.90
32612;DHT22;19030;49.478;8.986;2022-08-21T00:29:19;13.80;99.90
32612;DHT22;19030;49.478;8.986;2022-08-21T00:31:19;13.80;99.90
32612;DHT22;19030;49.478;8.986;2022-08-21T00:33:20;13.80;99.90
32612;DHT22;19030;49.478;8.986;2022-08-21T00:35:25;13.80;99.90
32612;DHT22;19030;49.478;8.986;2022-08-21T00:37:26;13.80;99.90
32612;DHT22;19030;49.478;8.986;2022-08-21T00:39:27;13.80;99.90
32612;DHT22;19030;49.478;8.986;2022-08-21T00:41:27;13.70;99.90
32612;DHT22;19030;49.478;8.986;2022-08-21T00:43:32;13.70;99.90
32612;DHT22;19030;49.478;8.986;2022-08-21T00:45:33;13.70;99.90
32612;DHT22;19030;49.478;8.986;2022-08-21T00:47:34;13.70;99.90
32612;DHT22;19030;49.478;8.986;2022-08-21T00:49:35;13.70;99.90
32612;DHT22;19030;49.478;8.986;2022-08-21T00:51:59;13.70;99.90
32612;DHT22;19030;49.478;8.986;2022-08-21T00:54:03;13.60;99.90
32612;DHT22;19030;49.478;8.986;2022-08-21T00:56:05;13.60;99.90
32612;DHT22;19030;49.478;8.986;2022-08-21T00:58:08;13.60;99.90
32612;DHT22;19030;49.478;8.986;2022-08-21T01:00:14;13.60;99.90
32612;DHT22;19030;49.478;8.986;2022-08-21T01:02:16;13.60;99.90
32612;DHT22;19030;49.478;8.986;2022-08-21T01:04:17;13.50;99.90
32612;DHT22;19030;49.478;8.986;2022-08-21T01:06:18;13.50;99.90
32612;DHT22;19030;49.478;8.986;2022-08-21T01:08:20;13.50;99.90
32612;DHT22;19030;49.478;8.986;2022-08-21T01:10:20;13.50;99.90
32612;DHT22;19030;49.478;8.986;2022-08-21T01:12:21;13.50;99.90
32612;DHT22;19030;49.478;8.986;2022-08-21T01:14:22;13.40;99.90
32612;DHT22;19030;49.478;8.986;2022-08-21T01:16:23;13.40;99.90
32612;DHT22;19030;49.478;8.986;2022-08-21T01:18:24;13.40;99.90
32612;DHT22;19030;49.478;8.986;2022-08-21T01:20:26;13.40;99.90
32612;DHT22;19030;49.478;8.986;2022-08-21T01:22:27;13.30;99.90
32612;DHT22;19030;49.478;8.986;2022-08-21T01:24:28;13.30;99.90
32612;DHT22;19030;49.478;8.986;2022-08-21T01:26:32;13.30;99.90
32612;DHT22;19030;49.478;8.986;2022-08-21T01:28:41;13.30;99.90
32612;DHT22;19030;49.478;8.986;2022-08-21T01:30:43;13.30;99.90
32612;DHT22;19030;49.478;8.986;2022-08-21T01:32:44;13.30;99.90
32612;DHT22;19030;49.478;8.986;2022-08-21T01:34:47;13.20;99.90
32612;DHT22;19030;49.478;8.986;2022-08-21T01:36:48;13.20;99.90
32612;DHT22;19030;49.478;8.986;2022-08-21T01:38:49;13.20;99.90
32612;DHT22;19030;49.478;8.986;2022-08-21T01:40:50;13.10;99.90
32612;DHT22;19030;49.478;8.986;2022-08-21T01:42:50;13.10;99.90
32612;DHT22;19030;49.478;8.986;2022-08-21T01:44:51;13.10;99.90
32612;DHT22;19030;49.478;8.986;2022-08-21T01:46:52;13.10;99.90
32612;DHT22;19030;49.478;8.986;2022-08-21T01:48:52;13.10;99.90
32612;DHT22;19030;49.478;8.986;2022-08-21T01:50:53;13.10;99.90
32612;DHT22;19030;49.478;8.986;2022-08-21T01:52:54;13.00;99.90
32612;DHT22;19030;49.478;8.986;2022-08-21T01:54:54;13.00;99.90
32612;DHT22;19030;49.478;8.986;2022-08-21T01:56:55;13.00;99.90
32612;DHT22;19030;49.478;8.986;2022-08-21T01:58:56;13.00;99.90
32612;DHT22;19030;49.478;8.986;2022-08-21T02:00:56;13.00;99.90
32612;DHT22;19030;49.478;8.986;2022-08-21T02:02:57;13.00;99.90
32612;DHT22;19030;49.478;8.986;2022-08-21T02:04:58;13.00;99.90
32612;DHT22;19030;49.478;8.986;2022-08-21T02:07:00;12.90;99.90
32612;DHT22;19030;49.478;8.986;2022-08-21T02:09:02;12.90;99.90
32612;DHT22;19030;49.478;8.986;2022-08-21T02:11:03;12.90;99.90
32612;DHT22;19030;49.478;8.986;2022-08-21T02:13:04;12.90;99.90
32612;DHT22;19030;49.478;8.986;2022-08-21T02:15:06;12.90;99.90
32612;DHT22;19030;49.478;8.986;2022-08-21T02:17:07;12.80;99.90
32612;DHT22;19030;49.478;8.986;2022-08-21T02:19:08;12.80;99.90
32612;DHT22;19030;49.478;8.986;2022-08-21T02:21:09;12.80;99.90
32612;DHT22;19030;49.478;8.986;2022-08-21T02:23:11;12.70;99.90
32612;DHT22;19030;49.478;8.986;2022-08-21T02:25:12;12.70;99.90
32612;DHT22;19030;49.478;8.986;2022-08-21T02:27:13;12.60;99.90
32612;DHT22;19030;49.478;8.986;2022-08-21T02:29:13;12.60;99.90
32612;DHT22;19030;49.478;8.986;2022-08-21T02:31:14;12.60;99.90
32612;DHT22;19030;49.478;8.986;2022-08-21T02:33:15;12.60;99.90
32612;DHT22;19030;49.478;8.986;2022-08-21T02:35:16;12.60;99.90
32612;DHT22;19030;49.478;8.986;2022-08-21T02:37:17;12.60;99.90
32612;DHT22;19030;49.478;8.986;2022-08-21T02:39:17;12.60;99.90
32612;DHT22;19030;49.478;8.986;2022-08-21T02:41:20;12.60;99.90
32612;DHT22;19030;49.478;8.986;2022-08-21T02:43:23;12.60;99.90
32612;DHT22;19030;49.478;8.986;2022-08-21T02:45:24;12.60;99.90
32612;DHT22;19030;49.478;8.986;2022-08-21T02:47:25;12.60;99.90
32612;DHT22;19030;49.478;8.986;2022-08-21T02:49:25;12.50;99.90
32612;DHT22;19030;49.478;8.986;2022-08-21T02:51:26;12.50;99.90
32612;DHT22;19030;49.478;8.986;2022-08-21T02:53:27;12.50;99.90
32612;DHT22;19030;49.478;8.986;2022-08-21T02:55:31;12.50;99.90
32612;DHT22;19030;49.478;8.986;2022-08-21T02:57:32;12.50;99.90
32612;DHT22;19030;49.478;8.986;2022-08-21T02:59:32;12.50;99.90
32612;DHT22;19030;49.478;8.986;2022-08-21T03:01:33;12.40;99.90
32612;DHT22;19030;49.478;8.986;2022-08-21T03:03:33;12.50;99.90
32612;DHT22;19030;49.478;8.986;2022-08-21T03:05:36;12.50;99.90
32612;DHT22;19030;49.478;8.986;2022-08-21T03:07:40;12.40;99.90
32612;DHT22;19030;49.478;8.986;2022-08-21T03:09:41;12.40;99.90
32612;DHT22;19030;49.478;8.986;2022-08-21T03:11:42;12.40;99.90
32612;DHT22;19030;49.478;8.986;2022-08-21T03:13:42;12.40;99.90
32612;DHT22;19030;49.478;8.986;2022-08-21T03:15:43;12.30;99.90
32612;DHT22;19030;49.478;8.986;2022-08-21T03:17:45;12.30;99.90
32612;DHT22;19030;49.478;8.986;2022-08-21T03:19:46;12.30;99.90
32612;DHT22;19030;49.478;8.986;2022-08-21T03:21:46;12.30;99.90
32612;DHT22;19030;49.478;8.986;2022-08-21T03:23:47;12.30;99.90
32612;DHT22;19030;49.478;8.986;2022-08-21T03:25:47;12.20;99.90
32612;DHT22;19030;49.478;8.986;2022-08-21T03:27:49;12.20;99.90
32612;DHT22;19030;49.478;8.986;2022-08-21T03:29:50;12.20;99.90
32612;DHT22;19030;49.478;8.986;2022-08-21T03:31:51;12.20;99.90
32612;DHT22;19030;49.478;8.986;2022-08-21T03:33:53;12.20;99.90
32612;DHT22;19030;49.478;8.986;2022-08-21T03:35:59;12.10;99.90
32612;DHT22;19030;49.478;8.986;2022-08-21T03:38:00;12.10;99.90
32612;DHT22;19030;49.478;8.986;2022-08-21T03:40:03;12.10;99.90
32612;DHT22;19030;49.478;8.986;2022-08-21T03:42:04;12.10;99.90
32612;DHT22;19030;49.478;8.986;2022-08-21T03:44:05;12.10;99.90
32612;DHT22;19030;49.478;8.986;2022-08-21T03:46:06;12.00;99.90
32612;DHT22;19030;49.478;8.986;2022-08-21T03:48:07;12.10;99.90
32612;DHT22;19030;49.478;8.986;2022-08-21T03:50:09;12.00;99.90
32612;DHT22;19030;49.478;8.986;2022-08-21T03:52:10;12.10;99.90
32612;DHT22;19030;49.478;8.986;2022-08-21T03:54:10;12.00;99.90
32612;DHT22;19030;49.478;8.986;2022-08-21T03:56:11;12.00;99.90
32612;DHT22;19030;49.478;8.986;2022-08-21T03:58:12;12.00;99.90
32612;DHT22;19030;49.478;8.986;2022-08-21T04:00:15;12.00;99.90
32612;DHT22;19030;49.478;8.986;2022-08-21T04:02:17;12.00;99.90
32612;DHT22;19030;49.478;8.986;2022-08-21T04:04:20;11.90;99.90
32612;DHT22;19030;49.478;8.986;2022-08-21T04:06:20;11.90;99.90
32612;DHT22;19030;49.478;8.986;2022-08-21T04:08:21;11.90;99.90
32612;DHT22;19030;49.478;8.986;2022-08-21T04:10:22;11.90;99.90
32612;DHT22;19030;49.478;8.986;2022-08-21T04:12:24;11.90;99.90
32612;DHT22;19030;49.478;8.986;2022-08-21T04:14:25;11.90;99.90
32612;DHT22;19030;49.478;8.986;2022-08-21T04:16:25;12.00;99.90
32612;DHT22;19030;49.478;8.986;2022-08-21T04:18:26;12.00;99.90
32612;DHT22;19030;49.478;8.986;2022-08-21T04:20:27;12.00;99.90
32612;DHT22;19030;49.478;8.986;2022-08-21T04:22:27;12.00;99.90
32612;DHT22;19030;49.478;8.986;2022-08-21T04:24:28;12.00;99.90
32612;DHT22;19030;49.478;8.986;2022-08-21T04:26:28;12.00;99.90
32612;DHT22;19030;49.478;8.986;2022-08-21T04:28:31;12.00;99.90
32612;DHT22;19030;49.478;8.986;2022-08-21T04:30:31;11.90;99.90
32612;DHT22;19030;49.478;8.986;2022-08-21T04:32:32;11.90;99.90
32612;DHT22;19030;49.478;8.986;2022-08-21T04:34:32;11.90;99.90
32612;DHT22;19030;49.478;8.986;2022-08-21T04:36:33;11.90;99.90
32612;DHT22;19030;49.478;8.986;2022-08-21T04:38:34;11.90;99.90
32612;DHT22;19030;49.478;8.986;2022-08-21T04:40:34;11.90;99.90
32612;DHT22;19030;49.478;8.986;2022-08-21T04:42:46;11.90;99.90
32612;DHT22;19030;49.478;8.986;2022-08-21T04:44:49;11.90;99.90
32612;DHT22;19030;49.478;8.986;2022-08-21T04:46:49;11.90;99.90
32612;DHT22;19030;49.478;8.986;2022-08-21T04:48:50;12.00;99.90
32612;DHT22;19030;49.478;8.986;2022-08-21T04:50:56;12.00;99.90
32612;DHT22;19030;49.478;8.986;2022-08-21T04:52:57;12.00;99.90
32612;DHT22;19030;49.478;8.986;2022-08-21T04:54:58;12.10;99.90
32612;DHT22;19030;49.478;8.986;2022-08-21T04:57:02;12.10;99.90
32612;DHT22;19030;49.478;8.986;2022-08-21T04:59:06;12.10;99.90
32612;DHT22;19030;49.478;8.986;2022-08-21T05:01:14;12.20;99.90
32612;DHT22;19030;49.478;8.986;2022-08-21T05:03:17;12.20;99.90
32612;DHT22;19030;49.478;8.986;2022-08-21T05:05:18;12.20;99.90
32612;DHT22;19030;49.478;8.986;2022-08-21T05:07:21;12.30;99.90
32612;DHT22;19030;49.478;8.986;2022-08-21T05:09:23;12.30;99.90
32612;DHT22;19030;49.478;8.986;2022-08-21T05:11:24;12.40;99.90
32612;DHT22;19030;49.478;8.986;2022-08-21T05:13:25;12.40;99.90
32612;DHT22;19030;49.478;8.986;2022-08-21T05:15:26;12.50;99.90
32612;DHT22;19030;49.478;8.986;2022-08-21T05:17:26;12.60;99.90
32612;DHT22;19030;49.478;8.986;2022-08-21T05:19:27;12.60;99.90
32612;DHT22;19030;49.478;8.986;2022-08-21T05:21:27;12.70;99.90
32612;DHT22;19030;49.478;8.986;2022-08-21T05:23:28;12.70;99.90
32612;DHT22;19030;49.478;8.986;2022-08-21T05:25:29;12.80;99.90
32612;DHT22;19030;49.478;8.986;2022-08-21T05:27:29;12.90;99.90
32612;DHT22;19030;49.478;8.986;2022-08-21T05:29:30;13.00;99.90
32612;DHT22;19030;49.478;8.986;2022-08-21T05:31:31;13.00;99.90
32612;DHT22;19030;49.478;8.986;2022-08-21T05:33:32;13.10;99.90
32612;DHT22;19030;49.478;8.986;2022-08-21T05:35:33;13.20;99.90
32612;DHT22;19030;49.478;8.986;2022-08-21T05:37:34;13.20;99.90
32612;DHT22;19030;49.478;8.986;2022-08-21T05:39:34;13.30;99.90
32612;DHT22;19030;49.478;8.986;2022-08-21T05:41:35;13.40;99.90
32612;DHT22;19030;49.478;8.986;2022-08-21T05:43:36;13.50;99.90
32612;DHT22;19030;49.478;8.986;2022-08-21T05:45:36;13.50;99.90
32612;DHT22;19030;49.478;8.986;2022-08-21T05:47:37;13.50;99.90
32612;DHT22;19030;49.478;8.986;2022-08-21T05:49:38;13.60;99.90
32612;DHT22;19030;49.478;8.986;2022-08-21T05:51:42;13.70;99.90
32612;DHT22;19030;49.478;8.986;2022-08-21T05:53:43;13.60;99.90
32612;DHT22;19030;49.478;8.986;2022-08-21T05:55:44;13.70;99.90
32612;DHT22;19030;49.478;8.986;2022-08-21T05:57:45;13.70;99.90
32612;DHT22;19030;49.478;8.986;2022-08-21T05:59:45;13.80;99.90
32612;DHT22;19030;49.478;8.986;2022-08-21T06:01:46;13.90;99.90
32612;DHT22;19030;49.478;8.986;2022-08-21T06:03:46;14.20;99.90
32612;DHT22;19030;49.478;8.986;2022-08-21T06:05:47;14.90;99.90
32612;DHT22;19030;49.478;8.986;2022-08-21T06:07:48;15.30;99.90
32612;DHT22;19030;49.478;8.986;2022-08-21T06:09:49;15.60;99.90
32612;DHT22;19030;49.478;8.986;2022-08-21T06:11:49;15.90;99.90
32612;DHT22;19030;49.478;8.986;2022-08-21T06:13:50;16.00;99.90
32612;DHT22;19030;49.478;8.986;2022-08-21T06:16:02;16.00;99.90
32612;DHT22;19030;49.478;8.986;2022-08-21T06:18:03;15.90;99.90
32612;DHT22;19030;49.478;8.986;2022-08-21T06:20:04;15.80;99.90
32612;DHT22;19030;49.478;8.986;2022-08-21T06:22:05;16.10;99.90
32612;DHT22;19030;49.478;8.986;2022-08-21T06:24:05;16.80;99.90
32612;DHT22;19030;49.478;8.986;2022-08-21T06:26:08;17.70;99.90
32612;DHT22;19030;49.478;8.986;2022-08-21T06:28:10;18.60;99.90
32612;DHT22;19030;49.478;8.986;2022-08-21T06:30:11;19.50;97.90
32612;DHT22;19030;49.478;8.986;2022-08-21T06:32:12;20.30;94.80
32612;DHT22;19030;49.478;8.986;2022-08-21T06:34:13;20.90;92.50
32612;DHT22;19030;49.478;8.986;2022-08-21T06:36:14;21.20;91.50
32612;DHT22;19030;49.478;8.986;2022-08-21T06:38:15;21.60;89.90
32612;DHT22;19030;49.478;8.986;2022-08-21T06:40:16;22.00;87.60
32612;DHT22;19030;49.478;8.986;2022-08-21T06:42:17;22.40;84.40
32612;DHT22;19030;49.478;8.986;2022-08-21T06:44:18;22.70;82.70
32612;DHT22;19030;49.478;8.986;2022-08-21T06:46:19;23.00;81.00
32612;DHT22;19030;49.478;8.986;2022-08-21T06:48:19;23.40;79.30
32612;DHT22;19030;49.478;8.986;2022-08-21T06:50:20;23.90;77.00
32612;DHT22;19030;49.478;8.986;2022-08-21T06:52:20;24.30;74.70
32612;DHT22;19030;49.478;8.986;2022-08-21T06:54:21;24.50;72.30
32612;DHT22;19030;49.478;8.986;2022-08-21T06:56:22;24.70;70.60
32612;DHT22;19030;49.478;8.986;2022-08-21T06:58:22;24.80;69.30
32612;DHT22;19030;49.478;8.986;2022-08-21T07:00:23;24.80;68.60
32612;DHT22;19030;49.478;8.986;2022-08-21T07:02:23;24.90;67.90
32612;DHT22;19030;49.478;8.986;2022-08-21T07:04:24;24.90;67.30
32612;DHT22;19030;49.478;8.986;2022-08-21T07:06:24;25.00;66.10
32612;DHT22;19030;49.478;8.986;2022-08-21T07:08:26;25.10;66.30
32612;DHT22;19030;49.478;8.986;2022-08-21T07:10:27;25.10;65.80
32612;DHT22;19030;49.478;8.986;2022-08-21T07:12:28;25.20;65.60
32612;DHT22;19030;49.478;8.986;2022-08-21T07:14:28;25.30;64.50
32612;DHT22;19030;49.478;8.986;2022-08-21T07:16:29;25.40;64.70
32612;DHT22;19030;49.478;8.986;2022-08-21T07:18:30;25.50;64.30
32612;DHT22;19030;49.478;8.986;2022-08-21T07:20:31;25.70;62.60
32612;DHT22;19030;49.478;8.986;2022-08-21T07:22:32;25.80;62.60
32612;DHT22;19030;49.478;8.986;2022-08-21T07:24:33;26.00;61.50
32612;DHT22;19030;49.478;8.986;2022-08-21T07:26:33;26.20;61.80
32612;DHT22;19030;49.478;8.986;2022-08-21T07:28:34;26.30;60.00
32612;DHT22;19030;49.478;8.986;2022-08-21T07:30:35;26.40;59.80
32612;DHT22;19030;49.478;8.986;2022-08-21T07:32:35;26.40;59.50
32612;DHT22;19030;49.478;8.986;2022-08-21T07:34:36;26.40;59.00
32612;DHT22;19030;49.478;8.986;2022-08-21T07:36:37;26.60;59.10
32612;DHT22;19030;49.478;8.986;2022-08-21T07:38:38;26.70;59.10
32612;DHT22;19030;49.478;8.986;2022-08-21T07:40:38;26.90;59.50
32612;DHT22;19030;49.478;8.986;2022-08-21T07:42:43;27.00;58.10
32612;DHT22;19030;49.478;8.986;2022-08-21T07:44:44;27.20;57.50
32612;DHT22;19030;49.478;8.986;2022-08-21T07:46:44;27.30;57.50
32612;DHT22;19030;49.478;8.986;2022-08-21T07:48:45;27.20;58.10
32612;DHT22;19030;49.478;8.986;2022-08-21T07:50:45;27.10;58.50
32612;DHT22;19030;49.478;8.986;2022-08-21T07:52:46;27.00;58.30
32612;DHT22;19030;49.478;8.986;2022-08-21T07:54:47;27.00;58.00
32612;DHT22;19030;49.478;8.986;2022-08-21T07:56:48;27.10;57.50
32612;DHT22;19030;49.478;8.986;2022-08-21T07:58:48;27.10;57.50
32612;DHT22;19030;49.478;8.986;2022-08-21T08:00:49;27.10;58.20
32612;DHT22;19030;49.478;8.986;2022-08-21T08:02:51;27.20;58.20
32612;DHT22;19030;49.478;8.986;2022-08-21T08:04:52;27.40;57.30
32612;DHT22;19030;49.478;8.986;2022-08-21T08:06:53;27.70;57.10
32612;DHT22;19030;49.478;8.986;2022-08-21T08:08:54;28.00;56.70
32612;DHT22;19030;49.478;8.986;2022-08-21T08:10:56;28.40;55.80
32612;DHT22;19030;49.478;8.986;2022-08-21T08:12:57;28.70;54.80
32612;DHT22;19030;49.478;8.986;2022-08-21T08:14:59;29.10;53.70
32612;DHT22;19030;49.478;8.986;2022-08-21T08:17:00;29.20;53.30
32612;DHT22;19030;49.478;8.986;2022-08-21T08:19:02;29.30;53.50
32612;DHT22;19030;49.478;8.986;2022-08-21T08:21:04;29.50;52.80
32612;DHT22;19030;49.478;8.986;2022-08-21T08:23:05;29.80;51.90
32612;DHT22;19030;49.478;8.986;2022-08-21T08:25:08;30.40;50.40
32612;DHT22;19030;49.478;8.986;2022-08-21T08:27:09;30.80;49.80
32612;DHT22;19030;49.478;8.986;2022-08-21T08:29:09;31.30;48.70
32612;DHT22;19030;49.478;8.986;2022-08-21T08:31:10;31.80;47.70
32612;DHT22;19030;49.478;8.986;2022-08-21T08:33:10;32.30;47.10
32612;DHT22;19030;49.478;8.986;2022-08-21T08:35:11;33.00;45.60
32612;DHT22;19030;49.478;8.986;2022-08-21T08:37:12;33.40;44.90
32612;DHT22;19030;49.478;8.986;2022-08-21T08:39:13;33.90;43.70
32612;DHT22;19030;49.478;8.986;2022-08-21T08:41:19;34.40;43.20
32612;DHT22;19030;49.478;8.986;2022-08-21T08:43:19;34.60;42.60
32612;DHT22;19030;49.478;8.986;2022-08-21T08:45:21;34.60;42.40
32612;DHT22;19030;49.478;8.986;2022-08-21T08:47:24;35.20;41.40
32612;DHT22;19030;49.478;8.986;2022-08-21T08:49:37;35.50;40.50
32612;DHT22;19030;49.478;8.986;2022-08-21T08:54:07;36.80;38.90
32612;DHT22;19030;49.478;8.986;2022-08-21T08:56:09;37.40;37.90
32612;DHT22;19030;49.478;8.986;2022-08-21T08:58:24;37.70;36.40
32612;DHT22;19030;49.478;8.986;2022-08-21T09:00:26;37.90;35.70
32612;DHT22;19030;49.478;8.986;2022-08-21T09:02:27;38.10;35.20
32612;DHT22;19030;49.478;8.986;2022-08-21T09:04:29;38.10;34.20
32612;DHT22;19030;49.478;8.986;2022-08-21T09:11:15;38.20;32.40
32612;DHT22;19030;49.478;8.986;2022-08-21T09:18:09;39.60;30.00
32612;DHT22;19030;49.478;8.986;2022-08-21T09:20:24;39.80;29.30
32612;DHT22;19030;49.478;8.986;2022-08-21T09:28:56;39.50;30.60
32612;DHT22;19030;49.478;8.986;2022-08-21T09:30:58;40.20;29.60
32612;DHT22;19030;49.478;8.986;2022-08-21T09:33:02;40.10;29.40
32612;DHT22;19030;49.478;8.986;2022-08-21T09:35:20;39.70;29.40
32612;DHT22;19030;49.478;8.986;2022-08-21T09:37:21;40.30;29.00
32612;DHT22;19030;49.478;8.986;2022-08-21T09:39:32;40.30;28.70
32612;DHT22;19030;49.478;8.986;2022-08-21T09:41:34;40.20;29.10
32612;DHT22;19030;49.478;8.986;2022-08-21T09:43:38;40.90;28.80
32612;DHT22;19030;49.478;8.986;2022-08-21T09:45:41;42.10;27.50
32612;DHT22;19030;49.478;8.986;2022-08-21T09:47:43;42.30;27.10
32612;DHT22;19030;49.478;8.986;2022-08-21T09:49:45;40.80;28.00
32612;DHT22;19030;49.478;8.986;2022-08-21T09:51:51;38.70;29.20
32612;DHT22;19030;49.478;8.986;2022-08-21T09:53:55;37.20;30.60
32612;DHT22;19030;49.478;8.986;2022-08-21T09:55:59;35.60;32.10
32612;DHT22;19030;49.478;8.986;2022-08-21T09:58:20;34.10;34.70
32612;DHT22;19030;49.478;8.986;2022-08-21T10:00:32;32.70;37.20
32612;DHT22;19030;49.478;8.986;2022-08-21T10:02:34;32.20;38.90
32612;DHT22;19030;49.478;8.986;2022-08-21T10:04:36;33.60;37.60
32612;DHT22;19030;49.478;8.986;2022-08-21T10:06:37;36.10;34.80
32612;DHT22;19030;49.478;8.986;2022-08-21T10:08:39;37.80;32.60
32612;DHT22;19030;49.478;8.986;2022-08-21T10:10:40;38.10;31.20
32612;DHT22;19030;49.478;8.986;2022-08-21T10:12:54;38.10;30.00
32612;DHT22;19030;49.478;8.986;2022-08-21T10:15:06;37.90;30.20
32612;DHT22;19030;49.478;8.986;2022-08-21T10:17:35;38.30;30.10
32612;DHT22;19030;49.478;8.986;2022-08-21T10:22:27;39.90;28.20
32612;DHT22;19030;49.478;8.986;2022-08-21T10:25:06;39.90;28.10
32612;DHT22;19030;49.478;8.986;2022-08-21T10:29:45;39.80;28.50
32612;DHT22;19030;49.478;8.986;2022-08-21T10:34:10;38.50;29.60
32612;DHT22;19030;49.478;8.986;2022-08-21T10:36:21;39.10;28.80
32612;DHT22;19030;49.478;8.986;2022-08-21T10:40:51;38.20;29.30
32612;DHT22;19030;49.478;8.986;2022-08-21T10:43:13;37.40;29.90
32612;DHT22;19030;49.478;8.986;2022-08-21T10:45:42;36.10;31.70
32612;DHT22;19030;49.478;8.986;2022-08-21T10:47:54;35.80;32.80
32612;DHT22;19030;49.478;8.986;2022-08-21T10:50:29;36.00;33.70
32612;DHT22;19030;49.478;8.986;2022-08-21T10:55:08;35.20;32.80
32612;DHT22;19030;49.478;8.986;2022-08-21T10:57:17;34.90;32.80
32612;DHT22;19030;49.478;8.986;2022-08-21T10:59:27;34.10;33.90
32612;DHT22;19030;49.478;8.986;2022-08-21T11:01:40;33.30;35.30
32612;DHT22;19030;49.478;8.986;2022-08-21T11:04:26;32.70;36.00
32612;DHT22;19030;49.478;8.986;2022-08-21T11:06:23;32.40;37.30
32612;DHT22;19030;49.478;8.986;2022-08-21T11:08:30;32.90;37.40
32612;DHT22;19030;49.478;8.986;2022-08-21T11:11:03;33.20;36.60
32612;DHT22;19030;49.478;8.986;2022-08-21T11:13:15;33.60;35.70
32612;DHT22;19030;49.478;8.986;2022-08-21T11:15:31;33.60;34.30
32612;DHT22;19030;49.478;8.986;2022-08-21T11:17:42;33.60;34.70
32612;DHT22;19030;49.478;8.986;2022-08-21T11:19:52;33.20;34.20
32612;DHT22;19030;49.478;8.986;2022-08-21T11:22:02;32.80;35.20
32612;DHT22;19030;49.478;8.986;2022-08-21T11:26:49;31.80;36.10
32612;DHT22;19030;49.478;8.986;2022-08-21T11:28:55;31.80;36.10
32612;DHT22;19030;49.478;8.986;2022-08-21T11:31:46;32.20;36.40
32612;DHT22;19030;49.478;8.986;2022-08-21T11:38:52;34.00;33.70
32612;DHT22;19030;49.478;8.986;2022-08-21T11:43:47;33.60;32.90
32612;DHT22;19030;49.478;8.986;2022-08-21T11:45:52;33.20;32.90
32612;DHT22;19030;49.478;8.986;2022-08-21T11:50:20;33.20;32.70
32612;DHT22;19030;49.478;8.986;2022-08-21T11:52:31;33.00;33.20
32612;DHT22;19030;49.478;8.986;2022-08-21T11:56:45;33.10;33.10
32612;DHT22;19030;49.478;8.986;2022-08-21T11:58:54;33.10;33.40
32612;DHT22;19030;49.478;8.986;2022-08-21T12:01:08;32.80;33.90
32612;DHT22;19030;49.478;8.986;2022-08-21T12:03:15;32.40;34.50
32612;DHT22;19030;49.478;8.986;2022-08-21T12:05:42;32.40;34.70
32612;DHT22;19030;49.478;8.986;2022-08-21T12:07:44;32.80;33.70
32612;DHT22;19030;49.478;8.986;2022-08-21T12:09:53;33.20;33.10
32612;DHT22;19030;49.478;8.986;2022-08-21T12:12:21;33.40;32.70
32612;DHT22;19030;49.478;8.986;2022-08-21T12:14:22;33.70;32.90
32612;DHT22;19030;49.478;8.986;2022-08-21T12:16:32;33.60;32.20
32612;DHT22;19030;49.478;8.986;2022-08-21T12:18:33;33.40;32.30
32612;DHT22;19030;49.478;8.986;2022-08-21T12:21:15;33.20;32.60
32612;DHT22;19030;49.478;8.986;2022-08-21T12:23:24;33.20;33.00
32612;DHT22;19030;49.478;8.986;2022-08-21T12:25:40;33.40;33.10
32612;DHT22;19030;49.478;8.986;2022-08-21T12:29:47;34.00;32.80
32612;DHT22;19030;49.478;8.986;2022-08-21T12:34:10;33.40;32.10
32612;DHT22;19030;49.478;8.986;2022-08-21T12:36:14;33.20;32.30
32612;DHT22;19030;49.478;8.986;2022-08-21T12:38:20;33.00;32.50
32612;DHT22;19030;49.478;8.986;2022-08-21T12:40:23;32.90;32.50
32612;DHT22;19030;49.478;8.986;2022-08-21T12:42:36;32.90;32.00
32612;DHT22;19030;49.478;8.986;2022-08-21T12:44:43;32.80;31.90
32612;DHT22;19030;49.478;8.986;2022-08-21T12:46:53;33.00;32.20
32612;DHT22;19030;49.478;8.986;2022-08-21T12:49:05;32.90;31.10
32612;DHT22;19030;49.478;8.986;2022-08-21T12:51:14;32.90;32.00
32612;DHT22;19030;49.478;8.986;2022-08-21T12:53:38;33.20;31.70
32612;DHT22;19030;49.478;8.986;2022-08-21T12:55:42;33.10;31.00
32612;DHT22;19030;49.478;8.986;2022-08-21T12:57:43;32.90;31.20
32612;DHT22;19030;49.478;8.986;2022-08-21T12:59:43;33.20;31.10
32612;DHT22;19030;49.478;8.986;2022-08-21T13:01:48;33.30;30.40
32612;DHT22;19030;49.478;8.986;2022-08-21T13:03:50;32.90;29.90
32612;DHT22;19030;49.478;8.986;2022-08-21T13:05:53;32.50;30.80
32612;DHT22;19030;49.478;8.986;2022-08-21T13:07:54;32.50;31.10
32612;DHT22;19030;49.478;8.986;2022-08-21T13:12:38;33.10;30.00
32612;DHT22;19030;49.478;8.986;2022-08-21T13:14:44;33.10;29.70
32612;DHT22;19030;49.478;8.986;2022-08-21T13:16:47;32.60;29.90
32612;DHT22;19030;49.478;8.986;2022-08-21T13:19:03;32.40;30.40
32612;DHT22;19030;49.478;8.986;2022-08-21T13:21:13;32.50;30.10
32612;DHT22;19030;49.478;8.986;2022-08-21T13:23:26;32.80;30.00
32612;DHT22;19030;49.478;8.986;2022-08-21T13:25:33;33.00;29.60
32612;DHT22;19030;49.478;8.986;2022-08-21T13:27:34;33.00;29.30
32612;DHT22;19030;49.478;8.986;2022-08-21T13:29:35;33.00;29.80
32612;DHT22;19030;49.478;8.986;2022-08-21T13:31:38;32.80;29.60
32612;DHT22;19030;49.478;8.986;2022-08-21T13:33:40;32.80;29.60
32612;DHT22;19030;49.478;8.986;2022-08-21T13:37:57;32.90;29.90
32612;DHT22;19030;49.478;8.986;2022-08-21T13:39:58;33.00;29.90
32612;DHT22;19030;49.478;8.986;2022-08-21T13:42:01;33.00;29.30
32612;DHT22;19030;49.478;8.986;2022-08-21T13:44:50;33.00;29.50
32612;DHT22;19030;49.478;8.986;2022-08-21T13:46:30;33.30;29.90
32612;DHT22;19030;49.478;8.986;2022-08-21T13:48:33;33.50;28.40
32612;DHT22;19030;49.478;8.986;2022-08-21T13:50:36;33.40;28.70
32612;DHT22;19030;49.478;8.986;2022-08-21T13:52:47;33.30;28.80
32612;DHT22;19030;49.478;8.986;2022-08-21T13:54:56;33.40;28.20
32612;DHT22;19030;49.478;8.986;2022-08-21T13:56:57;33.30;27.60